WICT2: Wichita River At Wichita Falls, TX

Data processed at Tue May 21 2019 23:50


All information presented herein is the property of the government of the United States of America and may be revised or deleted at any time without prior notice.
Dissemination of this information without the expressed written consent of the Public Affairs Office, Tulsa District U.S. Army Corps of Engineers is strictly prohibited.
These data are gathered electronically and, as presented, have not undergone any form of quality control. These data are not guaranteed to be valid or correct.
Go to home page.
Go to station list.
Go to home page.

Upstream stations:

Downstream station:
Previous Day
Next Day
Current Day
    
SHEF ID:       WICT2     Wichita Rv at Wichita Falls, TX
STATION TYPE:  
Regulating: Stage =    18.50, Flow =     5482

               PRECIP     STAGE  RIV-FLOW  WTR-TEMP   CONDUCT   VOLTAGE  BAT-LOAD
                   in        ft       cfs         F   umho/cm      volt      volt
              Ccp-Rev   Ccp-Rev   Ccp-Rev   Ccp-Rev   Ccp-Rev   Ccp-Rev   Ccp-Rev
(US/Central)
05/21 00:00      0.00      9.28      1578     73.54      1536      ----     12.65
05/21 01:00      0.00      9.34      1596     73.53      1534      ----     12.65
05/21 02:00      0.00      9.39      1611     73.47      1531      ----     12.65
05/21 03:00      0.00      9.55      1658     73.36      1528      ----     12.57
05/21 04:00      0.00      9.91      1767     73.22      1525      ----     12.57
05/21 05:00      0.00     10.12      1832     73.04      1522      ----     12.57
05/21 06:00      0.00     10.32      1894     72.88      1519      ----     12.57
05/21 07:00      0.00     10.47      1941     72.72      1517      ----     12.57
05/21 08:00      0.00     10.64      1998     72.57      1514      ----     12.57
05/21 09:00      0.00     10.82      2061     72.39      1512      ----     12.65
05/21 10:00      0.00     11.02      2133     72.10      1509      ----     12.89
05/21 11:00      0.00     11.24      2213     71.85      1507      ----     13.44
05/21 12:00      0.00     11.46      2294     71.73      1507      ----     13.29
05/21 13:00      0.00     11.59      2342     71.76      1507      ----     13.21
05/21 14:00      0.00     11.69      2380     71.91      1507      ----     13.05
05/21 15:00      0.00     11.82      2429     72.16      1507      ----     12.97
05/21 16:00      0.00     11.92      2467     72.36      1505      ----     12.89
05/21 17:00      0.00     12.01      2502     72.48      1504      ----     12.89
05/21 18:00      0.00     12.11      2540     72.54      1503      ----     12.81
05/21 19:00      0.00     12.19      2571     72.54      1501      ----     12.81
05/21 20:00      0.00     12.26      2599     72.48      1500      ----     12.73
05/21 21:00      0.00     12.31      2618     72.43      1499      ----     12.73
05/21 22:00      0.00     12.35      2634     72.36      1498      ----     12.73
05/21 23:00      ----      ----      ----      ----      ----      ----      ----